EGHI/SOU METAR and TAF weather

Enter ICAO airport designator
Station Type Date Time Source
EGHI METAR 2018/01/17 06:20 UTC NOAA

EGHI 170620Z 28014G26KT 250V320 9000 NSC 04/M02 Q1005


Station Type Date Time Source
EGHI Decoded METAR 2018/01/17 06:20 UTC NOAA

Southampton / Weather Centre, United Kingdom (EGHI) 50-54N 001-24W 0M
Jan 17, 2018 - 01:20 AM EST / 2018.01.17 0620 UTC
Wind: from the W (280 degrees) at 16 MPH (14 KT) gusting to 30 MPH (26 KT) (direction variable):0
Visibility: 5 mile(s):0
Temperature: 39 F (4 C)
Dew Point: 28 F (-2 C)
Relative Humidity: 64%
Pressure (altimeter): 29.68 in. Hg (1005 hPa)
ob: EGHI 170620Z 28014G26KT 250V320 9000 NSC 04/M02 Q1005
cycle: 6

Station Type Date Time Source
EGHI TAF 2016/03/02 12:00 UTC NOAA

TAF EGHI 021104Z 0212/0221 28015G25KT 9999 SCT020
TEMPO 0212/0221 29020G35KT PROB30
TEMPO 0212/0213 4000 SHRA BKN012CB
TEMPO 0218/0221 BKN014


Example: see airport list